Gober, Texas
Current Conditions -  °F | °C
As of 4:15 PM on Friday 24 Oct 2014 (Local Time) from KGVT Reporting Station
Clear Clear  
Wind Chill: 81°   Ceiling: Unl
Heat Index: 81°   Visibility: 10mi
Dew Point: 57°   Wind: 5mph
Humidity: 45%   Direction: 190°S
Pressure: 30.09"   Gusts: NA
Location:  33.47°N, 96.09°W
Report Text: KGVT 242115Z AUTO 19004KT 10SM CLR 27/14 A3009 RMK AO2
Loading
Personal Weather Stations






























Interactive Weather Map
Tropical Storm Tracking
New forecast layout! Learn more

10-Day Weather Forecast

Advertisements
Track Severe Weather on mobile